sensor_id;sensor_type;location;lat;lon;timestamp;P1;durP1;ratioP1;P2;durP2;ratioP2
52898;SDS011;38763;53.096;6.062;2022-07-31T00:01:02;7.65;;;2.47;;
52898;SDS011;38763;53.096;6.062;2022-07-31T00:03:28;6.50;;;2.40;;
52898;SDS011;38763;53.096;6.062;2022-07-31T00:05:53;6.07;;;2.40;;
52898;SDS011;38763;53.096;6.062;2022-07-31T00:08:19;5.95;;;2.65;;
52898;SDS011;38763;53.096;6.062;2022-07-31T00:10:44;8.40;;;2.30;;
52898;SDS011;38763;53.096;6.062;2022-07-31T00:13:10;4.22;;;2.25;;
52898;SDS011;38763;53.096;6.062;2022-07-31T00:15:36;5.13;;;2.30;;
52898;SDS011;38763;53.096;6.062;2022-07-31T00:18:01;6.20;;;2.33;;
52898;SDS011;38763;53.096;6.062;2022-07-31T00:20:27;6.35;;;2.55;;
52898;SDS011;38763;53.096;6.062;2022-07-31T00:22:53;9.15;;;2.70;;
52898;SDS011;38763;53.096;6.062;2022-07-31T00:25:18;9.63;;;2.92;;
52898;SDS011;38763;53.096;6.062;2022-07-31T00:27:44;4.78;;;2.33;;
52898;SDS011;38763;53.096;6.062;2022-07-31T00:30:10;5.70;;;2.60;;
52898;SDS011;38763;53.096;6.062;2022-07-31T00:32:37;6.15;;;2.65;;
52898;SDS011;38763;53.096;6.062;2022-07-31T00:35:03;5.90;;;2.30;;
52898;SDS011;38763;53.096;6.062;2022-07-31T00:37:29;5.95;;;2.40;;
52898;SDS011;38763;53.096;6.062;2022-07-31T00:39:55;5.70;;;2.65;;
52898;SDS011;38763;53.096;6.062;2022-07-31T00:42:21;5.28;;;2.78;;
52898;SDS011;38763;53.096;6.062;2022-07-31T00:44:49;8.07;;;2.58;;
52898;SDS011;38763;53.096;6.062;2022-07-31T00:47:15;7.72;;;2.65;;
52898;SDS011;38763;53.096;6.062;2022-07-31T00:49:41;5.47;;;2.65;;
52898;SDS011;38763;53.096;6.062;2022-07-31T00:52:08;5.63;;;2.80;;
52898;SDS011;38763;53.096;6.062;2022-07-31T00:54:34;6.72;;;2.88;;
52898;SDS011;38763;53.096;6.062;2022-07-31T00:56:59;6.80;;;2.70;;
52898;SDS011;38763;53.096;6.062;2022-07-31T00:59:26;8.02;;;2.90;;
52898;SDS011;38763;53.096;6.062;2022-07-31T01:01:52;6.50;;;2.70;;
52898;SDS011;38763;53.096;6.062;2022-07-31T01:04:19;6.93;;;3.00;;
52898;SDS011;38763;53.096;6.062;2022-07-31T01:06:44;6.78;;;3.10;;
52898;SDS011;38763;53.096;6.062;2022-07-31T01:09:10;6.70;;;3.00;;
52898;SDS011;38763;53.096;6.062;2022-07-31T01:14:23;5.95;;;2.97;;
52898;SDS011;38763;53.096;6.062;2022-07-31T01:16:53;6.88;;;2.67;;
52898;SDS011;38763;53.096;6.062;2022-07-31T01:31:21;5.75;;;3.13;;
52898;SDS011;38763;53.096;6.062;2022-07-31T01:34:02;6.15;;;3.15;;
52898;SDS011;38763;53.096;6.062;2022-07-31T01:36:45;10.20;;;3.25;;
52898;SDS011;38763;53.096;6.062;2022-07-31T01:41:42;6.88;;;3.25;;
52898;SDS011;38763;53.096;6.062;2022-07-31T01:44:11;6.75;;;2.85;;
52898;SDS011;38763;53.096;6.062;2022-07-31T01:46:39;4.40;;;2.63;;
52898;SDS011;38763;53.096;6.062;2022-07-31T01:49:06;6.88;;;3.45;;
52898;SDS011;38763;53.096;6.062;2022-07-31T01:51:33;5.10;;;2.88;;
52898;SDS011;38763;53.096;6.062;2022-07-31T01:54:03;6.72;;;3.20;;
52898;SDS011;38763;53.096;6.062;2022-07-31T01:56:29;6.03;;;2.97;;
52898;SDS011;38763;53.096;6.062;2022-07-31T01:58:58;9.07;;;3.10;;
52898;SDS011;38763;53.096;6.062;2022-07-31T02:01:24;5.20;;;2.95;;
52898;SDS011;38763;53.096;6.062;2022-07-31T02:03:51;10.07;;;3.25;;
52898;SDS011;38763;53.096;6.062;2022-07-31T02:06:19;6.30;;;3.47;;
52898;SDS011;38763;53.096;6.062;2022-07-31T02:08:48;10.02;;;2.90;;
52898;SDS011;38763;53.096;6.062;2022-07-31T02:11:17;6.97;;;3.25;;
52898;SDS011;38763;53.096;6.062;2022-07-31T02:13:44;5.38;;;3.33;;
52898;SDS011;38763;53.096;6.062;2022-07-31T02:16:12;5.85;;;2.80;;
52898;SDS011;38763;53.096;6.062;2022-07-31T02:18:38;7.97;;;3.50;;
52898;SDS011;38763;53.096;6.062;2022-07-31T02:21:05;7.13;;;3.05;;
52898;SDS011;38763;53.096;6.062;2022-07-31T02:23:32;5.45;;;3.40;;
52898;SDS011;38763;53.096;6.062;2022-07-31T02:25:59;8.07;;;3.50;;
52898;SDS011;38763;53.096;6.062;2022-07-31T02:28:27;8.43;;;3.63;;
52898;SDS011;38763;53.096;6.062;2022-07-31T02:30:54;8.23;;;3.40;;
52898;SDS011;38763;53.096;6.062;2022-07-31T02:33:22;6.40;;;3.30;;
52898;SDS011;38763;53.096;6.062;2022-07-31T02:35:52;8.30;;;3.97;;
52898;SDS011;38763;53.096;6.062;2022-07-31T02:38:21;7.25;;;3.40;;
52898;SDS011;38763;53.096;6.062;2022-07-31T02:40:50;6.30;;;3.20;;
52898;SDS011;38763;53.096;6.062;2022-07-31T02:43:20;6.13;;;3.38;;
52898;SDS011;38763;53.096;6.062;2022-07-31T02:45:45;5.88;;;3.05;;
52898;SDS011;38763;53.096;6.062;2022-07-31T02:48:12;6.75;;;3.45;;
52898;SDS011;38763;53.096;6.062;2022-07-31T02:50:37;8.40;;;3.40;;
52898;SDS011;38763;53.096;6.062;2022-07-31T02:53:04;6.93;;;3.15;;
52898;SDS011;38763;53.096;6.062;2022-07-31T02:55:32;5.57;;;3.30;;
52898;SDS011;38763;53.096;6.062;2022-07-31T02:57:58;7.95;;;3.63;;
52898;SDS011;38763;53.096;6.062;2022-07-31T03:00:26;8.30;;;3.70;;
52898;SDS011;38763;53.096;6.062;2022-07-31T03:02:52;8.52;;;3.90;;
52898;SDS011;38763;53.096;6.062;2022-07-31T03:05:19;9.27;;;3.95;;
52898;SDS011;38763;53.096;6.062;2022-07-31T03:07:45;9.93;;;3.65;;
52898;SDS011;38763;53.096;6.062;2022-07-31T03:10:11;7.95;;;3.90;;
52898;SDS011;38763;53.096;6.062;2022-07-31T03:12:40;7.70;;;3.60;;
52898;SDS011;38763;53.096;6.062;2022-07-31T03:15:12;7.90;;;3.72;;
52898;SDS011;38763;53.096;6.062;2022-07-31T03:17:40;8.40;;;3.75;;
52898;SDS011;38763;53.096;6.062;2022-07-31T03:20:08;5.63;;;3.80;;
52898;SDS011;38763;53.096;6.062;2022-07-31T03:22:34;7.18;;;3.65;;
52898;SDS011;38763;53.096;6.062;2022-07-31T03:25:01;10.13;;;3.80;;
52898;SDS011;38763;53.096;6.062;2022-07-31T03:27:27;8.40;;;4.30;;
52898;SDS011;38763;53.096;6.062;2022-07-31T03:29:53;9.02;;;3.85;;
52898;SDS011;38763;53.096;6.062;2022-07-31T03:32:19;6.57;;;3.75;;
52898;SDS011;38763;53.096;6.062;2022-07-31T03:34:45;7.03;;;4.43;;
52898;SDS011;38763;53.096;6.062;2022-07-31T03:37:11;5.85;;;3.90;;
52898;SDS011;38763;53.096;6.062;2022-07-31T03:39:37;6.45;;;4.15;;
52898;SDS011;38763;53.096;6.062;2022-07-31T03:42:02;10.98;;;4.40;;
52898;SDS011;38763;53.096;6.062;2022-07-31T03:44:29;6.85;;;4.10;;
52898;SDS011;38763;53.096;6.062;2022-07-31T03:46:56;9.00;;;4.18;;
52898;SDS011;38763;53.096;6.062;2022-07-31T03:49:23;9.43;;;4.15;;
52898;SDS011;38763;53.096;6.062;2022-07-31T03:51:49;11.02;;;4.70;;
52898;SDS011;38763;53.096;6.062;2022-07-31T03:54:14;7.47;;;4.00;;
52898;SDS011;38763;53.096;6.062;2022-07-31T03:56:42;8.68;;;3.90;;
52898;SDS011;38763;53.096;6.062;2022-07-31T03:59:10;7.20;;;4.07;;
52898;SDS011;38763;53.096;6.062;2022-07-31T04:01:36;6.72;;;4.00;;
52898;SDS011;38763;53.096;6.062;2022-07-31T04:04:02;9.50;;;4.50;;
52898;SDS011;38763;53.096;6.062;2022-07-31T04:06:27;6.72;;;4.40;;
52898;SDS011;38763;53.096;6.062;2022-07-31T04:08:53;7.65;;;4.20;;
52898;SDS011;38763;53.096;6.062;2022-07-31T04:11:19;7.85;;;4.47;;
52898;SDS011;38763;53.096;6.062;2022-07-31T04:13:44;7.45;;;4.20;;
52898;SDS011;38763;53.096;6.062;2022-07-31T04:16:10;8.60;;;4.75;;
52898;SDS011;38763;53.096;6.062;2022-07-31T04:18:35;7.10;;;4.35;;
52898;SDS011;38763;53.096;6.062;2022-07-31T04:21:01;6.15;;;3.75;;
52898;SDS011;38763;53.096;6.062;2022-07-31T04:23:26;8.30;;;4.13;;
52898;SDS011;38763;53.096;6.062;2022-07-31T04:25:52;7.03;;;4.40;;
52898;SDS011;38763;53.096;6.062;2022-07-31T04:28:18;6.78;;;3.78;;
52898;SDS011;38763;53.096;6.062;2022-07-31T04:30:43;7.45;;;4.28;;
52898;SDS011;38763;53.096;6.062;2022-07-31T04:33:09;9.63;;;4.30;;
52898;SDS011;38763;53.096;6.062;2022-07-31T04:35:34;6.63;;;4.18;;
52898;SDS011;38763;53.096;6.062;2022-07-31T04:38:00;8.13;;;4.05;;
52898;SDS011;38763;53.096;6.062;2022-07-31T04:40:26;7.78;;;4.22;;
52898;SDS011;38763;53.096;6.062;2022-07-31T04:42:52;10.23;;;4.30;;
52898;SDS011;38763;53.096;6.062;2022-07-31T04:45:18;7.82;;;4.35;;
52898;SDS011;38763;53.096;6.062;2022-07-31T04:47:44;9.18;;;4.88;;
52898;SDS011;38763;53.096;6.062;2022-07-31T04:50:09;7.30;;;4.40;;
52898;SDS011;38763;53.096;6.062;2022-07-31T04:52:35;8.00;;;4.10;;
52898;SDS011;38763;53.096;6.062;2022-07-31T04:55:01;6.63;;;3.90;;
52898;SDS011;38763;53.096;6.062;2022-07-31T04:57:26;8.43;;;4.20;;
52898;SDS011;38763;53.096;6.062;2022-07-31T04:59:52;7.65;;;4.50;;
52898;SDS011;38763;53.096;6.062;2022-07-31T05:02:18;9.50;;;4.05;;
52898;SDS011;38763;53.096;6.062;2022-07-31T05:04:43;7.10;;;3.97;;
52898;SDS011;38763;53.096;6.062;2022-07-31T05:07:09;8.05;;;4.78;;
52898;SDS011;38763;53.096;6.062;2022-07-31T05:09:34;9.27;;;4.28;;
52898;SDS011;38763;53.096;6.062;2022-07-31T05:12:00;9.02;;;4.18;;
52898;SDS011;38763;53.096;6.062;2022-07-31T05:14:26;7.72;;;4.22;;
52898;SDS011;38763;53.096;6.062;2022-07-31T05:16:52;6.72;;;4.38;;
52898;SDS011;38763;53.096;6.062;2022-07-31T05:19:18;7.25;;;4.22;;
52898;SDS011;38763;53.096;6.062;2022-07-31T05:21:44;8.73;;;4.72;;
52898;SDS011;38763;53.096;6.062;2022-07-31T05:24:10;7.53;;;4.10;;
52898;SDS011;38763;53.096;6.062;2022-07-31T05:26:36;8.00;;;4.70;;
52898;SDS011;38763;53.096;6.062;2022-07-31T05:29:03;7.78;;;4.55;;
52898;SDS011;38763;53.096;6.062;2022-07-31T05:31:29;8.07;;;4.68;;
52898;SDS011;38763;53.096;6.062;2022-07-31T05:33:55;9.23;;;4.47;;
52898;SDS011;38763;53.096;6.062;2022-07-31T05:36:23;7.15;;;4.22;;
52898;SDS011;38763;53.096;6.062;2022-07-31T05:38:49;7.68;;;4.75;;
52898;SDS011;38763;53.096;6.062;2022-07-31T05:41:14;8.20;;;4.85;;
52898;SDS011;38763;53.096;6.062;2022-07-31T05:43:40;7.63;;;4.97;;
52898;SDS011;38763;53.096;6.062;2022-07-31T05:46:06;10.07;;;4.93;;
52898;SDS011;38763;53.096;6.062;2022-07-31T05:48:32;10.65;;;5.32;;
52898;SDS011;38763;53.096;6.062;2022-07-31T05:50:58;8.50;;;4.63;;
52898;SDS011;38763;53.096;6.062;2022-07-31T05:53:24;9.27;;;4.43;;
52898;SDS011;38763;53.096;6.062;2022-07-31T05:55:50;7.88;;;4.75;;
52898;SDS011;38763;53.096;6.062;2022-07-31T05:58:16;7.63;;;5.25;;
52898;SDS011;38763;53.096;6.062;2022-07-31T06:00:44;8.60;;;4.95;;
52898;SDS011;38763;53.096;6.062;2022-07-31T06:03:13;8.50;;;5.13;;
52898;SDS011;38763;53.096;6.062;2022-07-31T06:05:40;8.52;;;5.40;;
52898;SDS011;38763;53.096;6.062;2022-07-31T06:08:06;9.30;;;5.20;;
52898;SDS011;38763;53.096;6.062;2022-07-31T06:10:33;8.13;;;5.25;;
52898;SDS011;38763;53.096;6.062;2022-07-31T06:13:01;9.05;;;5.50;;
52898;SDS011;38763;53.096;6.062;2022-07-31T06:15:27;9.93;;;5.47;;
52898;SDS011;38763;53.096;6.062;2022-07-31T06:17:53;9.80;;;5.80;;
52898;SDS011;38763;53.096;6.062;2022-07-31T06:20:19;10.15;;;4.97;;
52898;SDS011;38763;53.096;6.062;2022-07-31T06:22:44;9.18;;;5.80;;
52898;SDS011;38763;53.096;6.062;2022-07-31T06:25:10;9.50;;;5.85;;
52898;SDS011;38763;53.096;6.062;2022-07-31T06:27:37;10.13;;;5.30;;
52898;SDS011;38763;53.096;6.062;2022-07-31T06:30:03;6.78;;;5.00;;
52898;SDS011;38763;53.096;6.062;2022-07-31T06:32:30;9.95;;;5.32;;
52898;SDS011;38763;53.096;6.062;2022-07-31T06:34:56;9.93;;;5.80;;
52898;SDS011;38763;53.096;6.062;2022-07-31T06:37:22;8.98;;;5.82;;
52898;SDS011;38763;53.096;6.062;2022-07-31T06:39:47;8.95;;;5.70;;
52898;SDS011;38763;53.096;6.062;2022-07-31T06:42:23;8.63;;;5.57;;
52898;SDS011;38763;53.096;6.062;2022-07-31T06:44:49;11.90;;;5.70;;
52898;SDS011;38763;53.096;6.062;2022-07-31T06:47:15;9.07;;;5.55;;
52898;SDS011;38763;53.096;6.062;2022-07-31T06:49:42;12.02;;;6.07;;
52898;SDS011;38763;53.096;6.062;2022-07-31T06:52:07;9.43;;;6.30;;
52898;SDS011;38763;53.096;6.062;2022-07-31T06:54:33;10.25;;;6.25;;
52898;SDS011;38763;53.096;6.062;2022-07-31T06:56:59;12.50;;;6.03;;
52898;SDS011;38763;53.096;6.062;2022-07-31T06:59:24;9.75;;;6.57;;
52898;SDS011;38763;53.096;6.062;2022-07-31T07:01:50;11.38;;;6.72;;
52898;SDS011;38763;53.096;6.062;2022-07-31T07:04:15;8.63;;;6.38;;
52898;SDS011;38763;53.096;6.062;2022-07-31T07:06:41;15.38;;;6.65;;
52898;SDS011;38763;53.096;6.062;2022-07-31T07:09:07;9.43;;;6.47;;
52898;SDS011;38763;53.096;6.062;2022-07-31T07:11:32;13.63;;;6.95;;
52898;SDS011;38763;53.096;6.062;2022-07-31T07:13:58;11.38;;;7.03;;
52898;SDS011;38763;53.096;6.062;2022-07-31T07:16:23;14.23;;;6.78;;
52898;SDS011;38763;53.096;6.062;2022-07-31T07:18:49;9.82;;;6.72;;
52898;SDS011;38763;53.096;6.062;2022-07-31T07:21:15;10.45;;;7.20;;
52898;SDS011;38763;53.096;6.062;2022-07-31T07:23:41;11.73;;;7.68;;
52898;SDS011;38763;53.096;6.062;2022-07-31T07:26:06;10.75;;;7.20;;
52898;SDS011;38763;53.096;6.062;2022-07-31T07:28:32;13.88;;;7.22;;
52898;SDS011;38763;53.096;6.062;2022-07-31T07:30:58;11.95;;;7.10;;
52898;SDS011;38763;53.096;6.062;2022-07-31T07:33:24;12.98;;;7.47;;
52898;SDS011;38763;53.096;6.062;2022-07-31T07:35:50;13.80;;;7.13;;
52898;SDS011;38763;53.096;6.062;2022-07-31T07:38:16;15.65;;;7.38;;
52898;SDS011;38763;53.096;6.062;2022-07-31T07:40:42;13.18;;;7.15;;
52898;SDS011;38763;53.096;6.062;2022-07-31T07:43:07;9.80;;;6.15;;
52898;SDS011;38763;53.096;6.062;2022-07-31T07:45:33;10.88;;;6.97;;
52898;SDS011;38763;53.096;6.062;2022-07-31T07:47:59;11.20;;;7.07;;
52898;SDS011;38763;53.096;6.062;2022-07-31T07:50:25;11.38;;;6.88;;
52898;SDS011;38763;53.096;6.062;2022-07-31T07:52:50;13.88;;;7.10;;
52898;SDS011;38763;53.096;6.062;2022-07-31T07:55:16;10.32;;;6.47;;
52898;SDS011;38763;53.096;6.062;2022-07-31T07:57:42;12.80;;;6.57;;
52898;SDS011;38763;53.096;6.062;2022-07-31T08:00:09;9.90;;;7.18;;
52898;SDS011;38763;53.096;6.062;2022-07-31T08:02:35;12.40;;;7.53;;
52898;SDS011;38763;53.096;6.062;2022-07-31T08:05:02;14.57;;;7.55;;
52898;SDS011;38763;53.096;6.062;2022-07-31T08:07:28;12.82;;;7.50;;
52898;SDS011;38763;53.096;6.062;2022-07-31T08:09:56;14.25;;;8.63;;
52898;SDS011;38763;53.096;6.062;2022-07-31T08:12:22;17.05;;;9.20;;
52898;SDS011;38763;53.096;6.062;2022-07-31T08:14:47;17.88;;;9.75;;
52898;SDS011;38763;53.096;6.062;2022-07-31T08:17:13;15.20;;;9.13;;
52898;SDS011;38763;53.096;6.062;2022-07-31T08:19:39;16.05;;;9.90;;
52898;SDS011;38763;53.096;6.062;2022-07-31T08:22:06;18.88;;;9.73;;
52898;SDS011;38763;53.096;6.062;2022-07-31T08:24:32;16.83;;;10.35;;
52898;SDS011;38763;53.096;6.062;2022-07-31T08:26:57;22.42;;;10.60;;
52898;SDS011;38763;53.096;6.062;2022-07-31T08:29:42;18.88;;;11.30;;
52898;SDS011;38763;53.096;6.062;2022-07-31T08:32:08;19.25;;;11.82;;
52898;SDS011;38763;53.096;6.062;2022-07-31T08:34:33;21.27;;;11.60;;
52898;SDS011;38763;53.096;6.062;2022-07-31T08:36:59;19.98;;;12.10;;
52898;SDS011;38763;53.096;6.062;2022-07-31T08:39:24;23.02;;;12.05;;
52898;SDS011;38763;53.096;6.062;2022-07-31T08:41:50;23.33;;;13.05;;
52898;SDS011;38763;53.096;6.062;2022-07-31T08:44:16;22.13;;;12.57;;
52898;SDS011;38763;53.096;6.062;2022-07-31T08:46:41;27.85;;;14.18;;
52898;SDS011;38763;53.096;6.062;2022-07-31T08:49:09;22.92;;;13.27;;
52898;SDS011;38763;53.096;6.062;2022-07-31T08:51:39;21.63;;;12.82;;
52898;SDS011;38763;53.096;6.062;2022-07-31T08:54:07;22.38;;;13.05;;
52898;SDS011;38763;53.096;6.062;2022-07-31T08:56:35;22.15;;;13.30;;
52898;SDS011;38763;53.096;6.062;2022-07-31T08:59:02;25.23;;;13.68;;
52898;SDS011;38763;53.096;6.062;2022-07-31T09:01:28;22.45;;;13.63;;
52898;SDS011;38763;53.096;6.062;2022-07-31T09:03:57;22.17;;;13.85;;
52898;SDS011;38763;53.096;6.062;2022-07-31T09:06:23;21.30;;;13.00;;
52898;SDS011;38763;53.096;6.062;2022-07-31T09:08:48;23.20;;;13.10;;
52898;SDS011;38763;53.096;6.062;2022-07-31T09:11:14;25.55;;;13.73;;
52898;SDS011;38763;53.096;6.062;2022-07-31T09:13:50;23.67;;;15.25;;
52898;SDS011;38763;53.096;6.062;2022-07-31T09:16:27;22.42;;;13.65;;
52898;SDS011;38763;53.096;6.062;2022-07-31T09:18:53;22.27;;;13.57;;
52898;SDS011;38763;53.096;6.062;2022-07-31T09:21:22;22.83;;;12.70;;
52898;SDS011;38763;53.096;6.062;2022-07-31T09:23:48;21.70;;;13.57;;
52898;SDS011;38763;53.096;6.062;2022-07-31T09:26:14;19.73;;;12.30;;
52898;SDS011;38763;53.096;6.062;2022-07-31T09:28:40;22.45;;;13.48;;
52898;SDS011;38763;53.096;6.062;2022-07-31T09:31:08;28.70;;;15.10;;
52898;SDS011;38763;53.096;6.062;2022-07-31T09:33:34;21.85;;;13.80;;
52898;SDS011;38763;53.096;6.062;2022-07-31T09:36:05;21.33;;;14.32;;
52898;SDS011;38763;53.096;6.062;2022-07-31T09:38:32;25.75;;;14.82;;
52898;SDS011;38763;53.096;6.062;2022-07-31T09:43:34;22.88;;;13.80;;
52898;SDS011;38763;53.096;6.062;2022-07-31T09:46:00;23.02;;;14.95;;
52898;SDS011;38763;53.096;6.062;2022-07-31T09:48:27;25.38;;;15.75;;
52898;SDS011;38763;53.096;6.062;2022-07-31T09:50:54;25.65;;;15.23;;
52898;SDS011;38763;53.096;6.062;2022-07-31T09:53:20;23.02;;;14.43;;
52898;SDS011;38763;53.096;6.062;2022-07-31T09:55:54;23.83;;;14.68;;
52898;SDS011;38763;53.096;6.062;2022-07-31T09:58:21;19.85;;;12.45;;
52898;SDS011;38763;53.096;6.062;2022-07-31T10:00:49;25.65;;;15.23;;
52898;SDS011;38763;53.096;6.062;2022-07-31T10:03:17;24.55;;;15.32;;
52898;SDS011;38763;53.096;6.062;2022-07-31T10:05:44;23.98;;;14.60;;
52898;SDS011;38763;53.096;6.062;2022-07-31T10:08:11;25.17;;;14.82;;
52898;SDS011;38763;53.096;6.062;2022-07-31T10:10:38;21.02;;;14.25;;
52898;SDS011;38763;53.096;6.062;2022-07-31T10:13:07;23.58;;;14.15;;
52898;SDS011;38763;53.096;6.062;2022-07-31T10:15:39;19.10;;;13.15;;
52898;SDS011;38763;53.096;6.062;2022-07-31T10:18:06;23.02;;;14.40;;
52898;SDS011;38763;53.096;6.062;2022-07-31T10:20:33;18.00;;;13.02;;
52898;SDS011;38763;53.096;6.062;2022-07-31T10:23:00;19.27;;;13.05;;
52898;SDS011;38763;53.096;6.062;2022-07-31T10:25:49;18.45;;;12.02;;
52898;SDS011;38763;53.096;6.062;2022-07-31T10:28:20;19.67;;;13.95;;
52898;SDS011;38763;53.096;6.062;2022-07-31T10:30:46;16.63;;;12.10;;
52898;SDS011;38763;53.096;6.062;2022-07-31T10:33:12;21.50;;;14.65;;
52898;SDS011;38763;53.096;6.062;2022-07-31T10:35:40;25.08;;;15.55;;
52898;SDS011;38763;53.096;6.062;2022-07-31T10:38:30;22.42;;;14.25;;
52898;SDS011;38763;53.096;6.062;2022-07-31T10:41:06;23.73;;;15.45;;
52898;SDS011;38763;53.096;6.062;2022-07-31T10:43:47;22.92;;;15.45;;
52898;SDS011;38763;53.096;6.062;2022-07-31T10:46:25;25.02;;;15.35;;
52898;SDS011;38763;53.096;6.062;2022-07-31T10:48:52;26.42;;;16.33;;
52898;SDS011;38763;53.096;6.062;2022-07-31T10:51:18;22.02;;;15.10;;
52898;SDS011;38763;53.096;6.062;2022-07-31T10:54:00;24.95;;;15.77;;
52898;SDS011;38763;53.096;6.062;2022-07-31T10:56:27;25.63;;;16.63;;
52898;SDS011;38763;53.096;6.062;2022-07-31T10:58:56;33.75;;;17.55;;
52898;SDS011;38763;53.096;6.062;2022-07-31T11:01:23;23.40;;;16.17;;
52898;SDS011;38763;53.096;6.062;2022-07-31T11:03:58;28.60;;;18.40;;
52898;SDS011;38763;53.096;6.062;2022-07-31T11:06:25;22.83;;;16.13;;
52898;SDS011;38763;53.096;6.062;2022-07-31T11:09:01;27.77;;;17.20;;
52898;SDS011;38763;53.096;6.062;2022-07-31T11:11:31;23.00;;;15.75;;
52898;SDS011;38763;53.096;6.062;2022-07-31T11:13:58;26.60;;;17.23;;
52898;SDS011;38763;53.096;6.062;2022-07-31T11:16:24;26.88;;;17.75;;
52898;SDS011;38763;53.096;6.062;2022-07-31T11:19:03;25.98;;;17.20;;
52898;SDS011;38763;53.096;6.062;2022-07-31T11:24:01;26.90;;;17.02;;
52898;SDS011;38763;53.096;6.062;2022-07-31T11:26:52;29.00;;;17.75;;
52898;SDS011;38763;53.096;6.062;2022-07-31T11:29:29;25.48;;;16.67;;
52898;SDS011;38763;53.096;6.062;2022-07-31T11:32:10;27.48;;;17.58;;
52898;SDS011;38763;53.096;6.062;2022-07-31T11:34:49;26.35;;;15.45;;
52898;SDS011;38763;53.096;6.062;2022-07-31T11:37:19;25.30;;;16.70;;
52898;SDS011;38763;53.096;6.062;2022-07-31T11:39:50;24.02;;;15.35;;
52898;SDS011;38763;53.096;6.062;2022-07-31T11:42:17;19.83;;;13.13;;
52898;SDS011;38763;53.096;6.062;2022-07-31T11:44:46;24.23;;;14.88;;
52898;SDS011;38763;53.096;6.062;2022-07-31T11:47:12;26.27;;;15.20;;
52898;SDS011;38763;53.096;6.062;2022-07-31T11:49:38;22.17;;;14.32;;
52898;SDS011;38763;53.096;6.062;2022-07-31T11:52:05;23.77;;;15.18;;
52898;SDS011;38763;53.096;6.062;2022-07-31T11:54:32;20.95;;;13.25;;
52898;SDS011;38763;53.096;6.062;2022-07-31T11:57:01;17.50;;;11.80;;
52898;SDS011;38763;53.096;6.062;2022-07-31T12:02:05;24.85;;;14.75;;
52898;SDS011;38763;53.096;6.062;2022-07-31T12:04:32;19.10;;;12.63;;
52898;SDS011;38763;53.096;6.062;2022-07-31T12:07:00;20.23;;;12.32;;
52898;SDS011;38763;53.096;6.062;2022-07-31T12:09:27;24.60;;;15.00;;
52898;SDS011;38763;53.096;6.062;2022-07-31T12:11:54;25.00;;;14.15;;
52898;SDS011;38763;53.096;6.062;2022-07-31T12:14:33;25.13;;;14.32;;
52898;SDS011;38763;53.096;6.062;2022-07-31T12:17:04;24.60;;;14.27;;
52898;SDS011;38763;53.096;6.062;2022-07-31T12:19:35;24.35;;;12.95;;
52898;SDS011;38763;53.096;6.062;2022-07-31T12:22:17;13.98;;;8.30;;
52898;SDS011;38763;53.096;6.062;2022-07-31T12:24:44;15.88;;;8.63;;
52898;SDS011;38763;53.096;6.062;2022-07-31T12:27:14;10.20;;;6.88;;
52898;SDS011;38763;53.096;6.062;2022-07-31T12:29:44;8.88;;;5.88;;
52898;SDS011;38763;53.096;6.062;2022-07-31T12:32:09;9.15;;;6.07;;
52898;SDS011;38763;53.096;6.062;2022-07-31T12:34:39;9.18;;;6.22;;
52898;SDS011;38763;53.096;6.062;2022-07-31T12:37:09;9.77;;;5.88;;
52898;SDS011;38763;53.096;6.062;2022-07-31T12:44:57;11.90;;;7.47;;
52898;SDS011;38763;53.096;6.062;2022-07-31T12:47:26;13.43;;;7.95;;
52898;SDS011;38763;53.096;6.062;2022-07-31T12:49:54;19.10;;;8.75;;
52898;SDS011;38763;53.096;6.062;2022-07-31T12:52:21;17.55;;;9.38;;
52898;SDS011;38763;53.096;6.062;2022-07-31T12:54:49;15.65;;;8.55;;
52898;SDS011;38763;53.096;6.062;2022-07-31T12:57:15;15.40;;;7.20;;
52898;SDS011;38763;53.096;6.062;2022-07-31T12:59:40;11.18;;;5.88;;
52898;SDS011;38763;53.096;6.062;2022-07-31T13:02:12;12.98;;;5.85;;
52898;SDS011;38763;53.096;6.062;2022-07-31T13:04:38;12.10;;;6.40;;
52898;SDS011;38763;53.096;6.062;2022-07-31T13:07:03;9.48;;;5.30;;
52898;SDS011;38763;53.096;6.062;2022-07-31T13:09:29;8.88;;;6.15;;
52898;SDS011;38763;53.096;6.062;2022-07-31T13:11:55;12.45;;;6.03;;
52898;SDS011;38763;53.096;6.062;2022-07-31T13:14:21;11.00;;;6.38;;
52898;SDS011;38763;53.096;6.062;2022-07-31T13:16:48;9.73;;;6.10;;
52898;SDS011;38763;53.096;6.062;2022-07-31T13:19:15;11.40;;;5.63;;
52898;SDS011;38763;53.096;6.062;2022-07-31T13:21:41;11.02;;;6.30;;
52898;SDS011;38763;53.096;6.062;2022-07-31T13:24:08;13.82;;;7.68;;
52898;SDS011;38763;53.096;6.062;2022-07-31T13:26:37;13.48;;;6.68;;
52898;SDS011;38763;53.096;6.062;2022-07-31T13:29:03;8.77;;;5.45;;
52898;SDS011;38763;53.096;6.062;2022-07-31T13:31:30;9.18;;;5.55;;
52898;SDS011;38763;53.096;6.062;2022-07-31T13:33:56;10.60;;;5.35;;
52898;SDS011;38763;53.096;6.062;2022-07-31T13:36:22;10.75;;;5.75;;
52898;SDS011;38763;53.096;6.062;2022-07-31T13:38:48;12.32;;;5.90;;
52898;SDS011;38763;53.096;6.062;2022-07-31T13:41:15;10.98;;;6.50;;
52898;SDS011;38763;53.096;6.062;2022-07-31T13:43:55;13.15;;;6.72;;
52898;SDS011;38763;53.096;6.062;2022-07-31T13:46:22;13.23;;;7.15;;
52898;SDS011;38763;53.096;6.062;2022-07-31T13:48:49;10.07;;;5.88;;
52898;SDS011;38763;53.096;6.062;2022-07-31T13:51:16;8.90;;;5.40;;
52898;SDS011;38763;53.096;6.062;2022-07-31T13:53:42;11.48;;;5.18;;
52898;SDS011;38763;53.096;6.062;2022-07-31T13:56:08;7.93;;;5.30;;
52898;SDS011;38763;53.096;6.062;2022-07-31T13:58:35;10.73;;;5.93;;
52898;SDS011;38763;53.096;6.062;2022-07-31T14:01:00;11.75;;;6.72;;
52898;SDS011;38763;53.096;6.062;2022-07-31T14:03:26;9.85;;;6.63;;
52898;SDS011;38763;53.096;6.062;2022-07-31T14:05:52;12.35;;;6.57;;
52898;SDS011;38763;53.096;6.062;2022-07-31T14:08:18;13.05;;;6.50;;
52898;SDS011;38763;53.096;6.062;2022-07-31T14:10:44;9.45;;;5.63;;
52898;SDS011;38763;53.096;6.062;2022-07-31T14:13:12;10.00;;;5.88;;
52898;SDS011;38763;53.096;6.062;2022-07-31T14:15:37;10.45;;;5.78;;
52898;SDS011;38763;53.096;6.062;2022-07-31T14:18:03;12.38;;;6.38;;
52898;SDS011;38763;53.096;6.062;2022-07-31T14:20:29;12.20;;;6.97;;
52898;SDS011;38763;53.096;6.062;2022-07-31T14:23:01;11.07;;;6.80;;
52898;SDS011;38763;53.096;6.062;2022-07-31T14:25:30;12.18;;;6.10;;
52898;SDS011;38763;53.096;6.062;2022-07-31T14:27:56;10.77;;;5.88;;
52898;SDS011;38763;53.096;6.062;2022-07-31T14:30:22;10.43;;;5.75;;
52898;SDS011;38763;53.096;6.062;2022-07-31T14:32:51;11.15;;;5.63;;
52898;SDS011;38763;53.096;6.062;2022-07-31T14:35:18;9.20;;;5.32;;
52898;SDS011;38763;53.096;6.062;2022-07-31T14:37:44;12.10;;;5.28;;
52898;SDS011;38763;53.096;6.062;2022-07-31T14:40:11;9.60;;;5.40;;
52898;SDS011;38763;53.096;6.062;2022-07-31T14:42:38;9.73;;;5.18;;
52898;SDS011;38763;53.096;6.062;2022-07-31T14:45:03;11.50;;;5.53;;
52898;SDS011;38763;53.096;6.062;2022-07-31T14:47:31;10.32;;;5.75;;
52898;SDS011;38763;53.096;6.062;2022-07-31T14:49:57;12.13;;;5.22;;
52898;SDS011;38763;53.096;6.062;2022-07-31T14:52:22;9.98;;;4.20;;
52898;SDS011;38763;53.096;6.062;2022-07-31T14:54:48;9.43;;;4.20;;
52898;SDS011;38763;53.096;6.062;2022-07-31T14:57:14;6.30;;;3.95;;
52898;SDS011;38763;53.096;6.062;2022-07-31T14:59:39;8.82;;;4.50;;
52898;SDS011;38763;53.096;6.062;2022-07-31T15:02:05;7.38;;;4.32;;
52898;SDS011;38763;53.096;6.062;2022-07-31T15:04:31;9.02;;;4.80;;
52898;SDS011;38763;53.096;6.062;2022-07-31T15:06:56;8.88;;;4.78;;
52898;SDS011;38763;53.096;6.062;2022-07-31T15:09:23;7.97;;;4.40;;